Latest Coastal Weather Observations for Green Cape

IDN60701

Issued at 8:51 pm EDT Sunday 7 March 2021 (issued every 10 minutes, with the page automatically refreshed every 10 minutes)

About coastal observations | Map of coastal stations | Coastal observations for NSW | Marine services | Other Formats
Station Details ID: 069137 Name: GREEN CAPE AWS Lat: -37.26 Lon: 150.05 Height: 19.4 m
Data from the previous 72 hours. | See also: Recent months at Green Cape
Date/Time
EDT
Wind Sea
Height
m
Swell Vis
km
Cloud Weather Temp
°C
Press
MSL
hPa
Rain since
9am
mm
Dir  Spd
kts
Gust
kts
Height
m
Period
s
Dir
07/08:30pm NNE 19 22 - - - - - - - 20.5 1011.1 0.0
07/08:00pm NNE 20 23 - - - - - - - 20.3 1010.8 0.0
07/07:30pm NNE 19 23 - - - - - - - 20.3 1010.6 0.0
07/07:00pm NNE 18 21 - - - - - - - 20.4 1010.5 0.0
07/06:30pm NNE 17 20 - - - - - - - 20.8 1010.5 0.0
07/06:00pm NNE 17 20 - - - - - - - 20.9 1010.4 0.0
07/05:30pm NNE 17 20 - - - - - - - 21.3 1010.4 0.0
07/05:00pm NNE 17 20 - - - - - - - 21.4 1010.3 0.0
07/04:30pm NNE 19 22 - - - - - - - 21.6 1010.2 0.0
07/04:00pm NNE 19 23 - - - - - - - 21.6 1010.4 0.0
07/03:30pm NNE 19 22 - - - - - - - 21.8 1010.7 0.0
07/03:00pm NNE 19 22 - - - - - - - 21.7 1010.9 0.0
07/02:30pm NNE 19 24 - - - - - - - 21.1 1011.2 0.0
07/02:00pm NNE 19 22 - - - - - - - 21.3 1011.5 0.0
07/01:30pm NNE 17 20 - - - - - - - 21.3 1011.8 0.0
07/01:00pm NNE 17 21 - - - - - - - 21.2 1012.2 0.0
07/12:30pm NNE 17 20 - - - - - - - 21.1 1012.6 0.0
07/12:00pm NNE 17 20 - - - - - - - 21.0 1013.0 0.0
07/11:30am NNE 17 21 - - - - - - - 20.2 1013.4 0.0
07/11:00am N 15 20 - - - - - - - 19.4 1013.8 0.0
07/10:30am N 11 14 - - - - - - - 19.4 1014.0 0.0
07/10:00am N 10 13 - - - - - - - 18.8 1014.0 0.0
07/09:30am N 8 10 - - - - - - - 18.6 1014.0 0.0
07/09:00am N 6 8 - - - - - - - 18.6 1014.3 0.0
07/08:30am NW 4 6 - - - - - - - 16.4 1014.4 0.0
07/08:00am NNE 10 13 - - - - - - - 17.7 1014.0 0.0
07/07:30am NE 5 8 - - - - - - - 17.3 1014.0 0.0
07/07:00am WSW 2 4 - - - - - - - 15.7 1014.0 0.0
07/06:30am WSW 3 5 - - - - - - - 15.4 1013.7 0.0
07/06:00am W 5 7 - - - - - - - 15.5 1013.7 0.0
07/05:30am W 6 7 - - - - - - - 15.3 1013.7 0.0
07/05:00am W 5 6 - - - - - - - 15.1 1013.8 0.0
07/04:30am W 7 8 - - - - - - - 15.3 1013.9 0.0
07/04:00am W 5 7 - - - - - - - 15.5 1013.8 0.0
07/03:30am WSW 4 7 - - - - - - - 16.0 1014.0 0.0
07/03:00am W 1 7 - - - - - - - 16.4 1014.2 0.0
07/02:30am CALM 0 0 - - - - - - - 16.3 1014.5 0.0
07/02:00am SSW 2 7 - - - - - - - 16.4 1014.9 0.0
07/01:30am WSW 6 8 - - - - - - - 16.2 1015.2 0.0
07/01:00am W 7 9 - - - - - - - 15.9 1015.4 0.0
07/12:30am WNW 1 10 - - - - - - - 16.1 1015.5 0.0
07/12:00am W 10 12 - - - - - - - 16.3 1015.6 0.0
 
Date/Time
EDT
Wind Sea
Height
m
Swell Vis
km
Cloud Weather Temp
°C
Press
MSL
hPa
Rain since
9am
mm
Dir  Spd
kts
Gust
kts
Height
m
Period
s
Dir
06/11:30pm W 10 12 - - - - - - - 16.3 1015.6 0.0
06/11:00pm WSW 9 12 - - - - - - - 16.6 1015.7 0.0
06/10:30pm SW 10 13 - - - - - - - 17.1 1015.7 0.0
06/10:00pm SSW 11 12 - - - - - - - 17.6 1015.9 0.0
06/09:30pm SSW 13 15 - - - - - - - 17.4 1015.7 0.0
06/09:00pm S 13 16 - - - - - - - 17.4 1015.3 0.0
06/08:30pm SSW 14 17 - - - - - - - 17.3 1014.9 0.0
06/08:00pm SSW 18 21 - - - - - - - 17.1 1014.2 0.0
06/07:30pm S 19 23 - - - - - - - 17.5 1013.7 0.0
06/07:00pm S 19 24 - - - - - - - 17.7 1013.5 0.0
06/06:30pm S 18 22 - - - - - - - 18.3 1013.5 0.0
06/06:00pm S 17 20 - - - - - - - 18.3 1013.4 0.0
06/05:30pm S 17 20 - - - - - - - 18.2 1013.2 0.0
06/05:00pm S 18 20 - - - - - - - 18.7 1013.0 0.0
06/04:30pm S 17 19 - - - - - - - 18.5 1012.9 0.0
06/04:00pm S 16 19 - - - - - - - 18.7 1013.0 0.0
06/03:30pm S 15 19 - - - - - - - 19.2 1013.1 0.0
06/03:00pm S 17 20 - - - - - - - 18.7 1013.2 0.0
06/02:30pm SSW 14 17 - - - - - - - 18.8 1013.4 0.0
06/02:00pm SSW 13 17 - - - - - - - 18.9 1013.6 0.0
06/01:30pm SSW 13 16 - - - - - - - 19.6 1013.7 0.0
06/01:00pm SSW 16 20 - - - - - - - 18.9 1013.6 0.0
06/12:30pm SSW 15 19 - - - - - - - 18.8 1013.7 0.0
06/12:00pm SSW 14 17 - - - - - - - 19.0 1013.7 0.0
06/11:30am SW 14 19 - - - - - - - 18.0 1013.7 0.0
06/11:00am WSW 13 16 - - - - - - - 17.9 1013.8 0.0
06/10:30am WSW 15 19 - - - - - - - 17.6 1013.8 0.0
06/10:00am WSW 16 19 - - - - - - - 16.6 1013.8 0.0
06/09:30am WSW 17 20 - - - - - - - 16.0 1013.5 0.0
06/09:00am WSW 18 20 - - - - - - - 15.6 1013.3 0.0
06/08:30am WSW 19 23 - - - - - - - 15.5 1013.1 0.0
06/08:00am WSW 19 23 - - - - - - - 15.0 1012.8 0.0
06/07:30am WSW 22 28 - - - - - - - 14.7 1012.2 0.0
06/07:00am WSW 18 22 - - - - - - - 15.0 1012.2 0.0
06/06:30am WSW 19 23 - - - - - - - 14.5 1011.9 0.0
06/06:00am WSW 20 25 - - - - - - - 14.8 1011.7 0.0
06/05:30am WSW 18 22 - - - - - - - 15.1 1011.5 0.0
06/05:00am WSW 20 24 - - - - - - - 15.1 1011.3 0.0
06/04:30am WSW 19 23 - - - - - - - 14.9 1011.0 0.0
06/04:00am WSW 18 23 - - - - - - - 15.4 1011.2 0.0
06/03:30am WSW 19 23 - - - - - - - 15.2 1011.1 0.0
06/03:00am WSW 20 25 - - - - - - - 15.6 1011.3 0.0
06/02:30am WSW 21 25 - - - - - - - 15.7 1011.3 0.0
06/02:00am WSW 20 23 - - - - - - - 15.9 1011.6 0.0
06/01:30am WSW 18 21 - - - - - - - 16.0 1012.0 0.0
06/01:00am SW 24 29 - - - - - - - 16.2 1012.0 0.0
06/12:30am SW 21 27 - - - - - - - 16.4 1011.8 0.0
06/12:00am SW 18 22 - - - - - - - 16.3 1011.9 0.0
 
Date/Time
EDT
Wind Sea
Height
m
Swell Vis
km
Cloud Weather Temp
°C
Press
MSL
hPa
Rain since
9am
mm
Dir  Spd
kts
Gust
kts
Height
m
Period
s
Dir
05/11:30pm WSW 17 22 - - - - - - - 16.3 1012.0 0.0
05/11:00pm SW 23 28 - - - - - - - 16.4 1011.9 0.0
05/10:30pm SW 23 28 - - - - - - - 16.4 1011.8 0.0
05/10:00pm SW 23 30 - - - - - - - 16.3 1011.8 0.0
05/09:30pm SW 21 25 - - - - - - - 16.5 1011.5 0.0
05/09:00pm SW 20 26 - - - - - - - 16.6 1011.5 0.0
05/08:30pm SW 23 32 - - - - - - - 16.7 1011.1 0.0
05/08:05pm SW 23 33 - - - - - - - 16.6 1010.9 0.0
05/08:00pm SW 24 33 - - - - - - - 16.9 1011.0 0.0
05/07:30pm SW 26 36 - - - - - - - 16.9 1010.6 0.0
05/07:25pm SW 23 36 - - - - - - - 16.8 1010.4 0.0
05/07:00pm SW 23 27 - - - - - - - 17.1 1010.4 0.0
05/06:30pm SW 26 36 - - - - - - - 17.2 1010.2 0.0
05/06:25pm SW 26 36 - - - - - - - 17.3 1009.7 0.0
05/06:00pm SW 25 32 - - - - - - - 17.5 1009.7 0.0
05/05:30pm SSW 27 33 - - - - - - - 18.0 1009.1 0.0
05/05:00pm SW 25 31 - - - - - - - 17.8 1009.0 0.0
05/04:30pm SW 27 34 - - - - - - - 17.8 1009.0 0.0
05/04:00pm SW 23 29 - - - - - - - 18.1 1008.9 0.0
05/03:39pm SW 26 37 - - - - - - - 18.9 1008.7 0.0
05/03:30pm SW 26 31 - - - - - - - 19.0 1008.6 0.0
05/03:00pm SW 26 34 - - - - - - - 18.6 1009.1 0.0
05/02:30pm SW 21 29 - - - - - - - 18.2 1009.6 0.0
05/02:01pm SW 21 33 - - - - - - - 18.1 1009.5 0.0
05/02:00pm SW 20 28 - - - - - - - 18.2 1009.5 0.0
05/01:30pm SW 24 31 - - - - - - - 18.3 1009.4 0.0
05/01:00pm WSW 25 32 - - - - - - - 18.0 1009.5 0.0
05/12:30pm WSW 28 33 - - - - - - - 17.1 1009.6 0.0
05/12:00pm WSW 25 30 - - - - - - - 17.3 1009.7 0.0
05/11:30am WSW 26 32 - - - - - - - 17.4 1009.8 0.0
05/11:00am WSW 27 33 - - - - - - - 17.1 1009.7 0.0
05/10:30am WSW 28 37 - - - - - - - 16.6 1009.6 0.0
05/10:00am SW 25 33 - - - - - - - 16.6 1009.7 0.0
05/09:30am WSW 25 33 - - - - - - - 16.3 1009.7 0.0
05/09:00am WSW 20 25 - - - - - - - 16.0 1009.4 0.0
05/08:30am WSW 24 30 - - - - - - - 15.7 1009.2 0.0
05/08:00am WSW 25 31 - - - - - - - 15.9 1008.7 0.0
05/07:34am SW 25 36 - - - - - - - 15.6 1008.3 0.0
05/07:30am SW 25 31 - - - - - - - 15.8 1008.3 0.0
05/07:00am SW 29 37 - - - - - - - 15.9 1007.4 0.0
05/06:30am WSW 30 38 - - - - - - - 16.0 1007.1 0.0
05/06:07am WSW 28 38 - - - - - - - 16.2 1006.6 0.0
05/06:00am WSW 26 34 - - - - - - - 16.3 1006.6 0.0
05/05:30am SW 26 32 - - - - - - - 16.6 1006.4 0.0
05/05:00am SW 30 39 - - - - - - - 16.9 1006.2 0.0
05/04:30am SW 33 43 - - - - - - - 17.1 1006.0 0.0
05/04:02am SW 31 42 - - - - - - - 17.1 1005.7 0.0
05/04:00am SW 30 38 - - - - - - - 17.3 1006.0 0.0
05/03:35am SW 25 38 - - - - - - - 17.5 1005.9 0.0
05/03:30am SW 26 33 - - - - - - - 17.9 1006.1 0.0
05/03:00am SW 23 34 - - - - - - - 18.4 1005.8 0.0
05/02:51am SW 26 37 - - - - - - - 18.6 1005.9 0.0
05/02:30am SW 25 34 - - - - - - - 18.9 1005.6 0.0
05/02:24am SW 22 34 - - - - - - - 19.0 1005.8 0.0
05/02:00am WSW 21 26 - - - - - - - 19.4 1006.1 0.0
05/01:35am WSW 25 36 - - - - - - - 19.8 1006.0 0.0
05/01:30am WSW 27 36 - - - - - - - 19.8 1006.2 0.0
05/01:00am WSW 27 39 - - - - - - - 20.1 1006.3 0.0
05/12:52am WSW 25 39 - - - - - - - 20.0 1006.0 0.0
05/12:30am WSW 24 31 - - - - - - - 20.2 1006.5 0.0
05/12:00am WSW 22 27 - - - - - - - 20.1 1006.7 0.0
 
Date/Time
EDT
Wind Sea
Height
m
Swell Vis
km
Cloud Weather Temp
°C
Press
MSL
hPa
Rain since
9am
mm
Dir  Spd
kts
Gust
kts
Height
m
Period
s
Dir
04/11:30pm WSW 21 27 - - - - - - - 20.2 1007.0 0.0
04/11:00pm WSW 18 23 - - - - - - - 20.2 1007.3 0.0
04/10:30pm WSW 17 21 - - - - - - - 20.1 1007.5 0.0
04/10:00pm WSW 13 17 - - - - - - - 20.0 1008.0 0.0
04/09:30pm WNW 2 4 - - - - - - - 18.3 1008.1 0.0
04/09:00pm NNW 6 8 - - - - - - - 17.7 1008.0 0.0

Other formats

Comma delimited format used in spreadsheet applications
http://www.bom.gov.au/fwo/IDN60701/IDN60701.94934.axf

JavaScript Object Notation format (JSON) in row-major order
http://www.bom.gov.au/fwo/IDN60701/IDN60701.94934.json

Data quality

Most of these data are generated automatically and are frequently updated. Quality checks on data are not normally performed. It is possible for incorrect values to appear. Refer to information at About Latest Weather Observations and please check the disclaimer before using these data.